createdAt,value
2022-09-11T00:00:40.488Z,35.88
2022-09-11T00:03:11.788Z,41.15
2022-09-11T00:05:44.243Z,32.80
2022-09-11T00:08:16.845Z,29.35
2022-09-11T00:10:50.386Z,30.17
2022-09-11T00:13:23.537Z,35.90
2022-09-11T00:15:55.319Z,34.83
2022-09-11T00:18:26.015Z,28.98
2022-09-11T00:20:59.425Z,31.45
2022-09-11T00:23:30.236Z,34.70
2022-09-11T00:26:05.623Z,32.50
2022-09-11T00:28:36.520Z,35.92
2022-09-11T00:31:10.707Z,34.60
2022-09-11T00:33:41.854Z,30.80
2022-09-11T00:36:23.176Z,41.47
2022-09-11T00:38:54.161Z,32.33
2022-09-11T00:41:31.210Z,27.77
2022-09-11T00:44:10.780Z,27.25
2022-09-11T00:46:47.172Z,26.67
2022-09-11T00:49:46.945Z,25.92
2022-09-11T00:52:33.115Z,25.50
2022-09-11T00:55:16.307Z,25.38
2022-09-11T00:57:53.804Z,24.90
2022-09-11T01:00:24.797Z,27.17
2022-09-11T01:02:57.478Z,27.42
2022-09-11T01:05:30.685Z,27.23
2022-09-11T01:08:01.169Z,28.92
2022-09-11T01:11:01.282Z,31.33
2022-09-11T01:13:57.689Z,37.30
2022-09-11T01:16:45.502Z,29.98
2022-09-11T01:19:51.711Z,33.33
2022-09-11T01:22:52.188Z,36.20
2022-09-11T01:25:34.085Z,40.20
2022-09-11T01:28:11.197Z,34.53
2022-09-11T01:30:48.809Z,31.88
2022-09-11T01:33:48.539Z,34.95
2022-09-11T01:36:36.365Z,29.63
2022-09-11T01:39:07.577Z,34.03
2022-09-11T01:42:02.853Z,46.97
2022-09-11T01:44:51.491Z,36.17
2022-09-11T01:47:24.432Z,36.85
2022-09-11T01:50:05.147Z,40.47
2022-09-11T01:52:45.882Z,30.25
2022-09-11T01:55:23.077Z,34.70
2022-09-11T01:58:01.372Z,38.20
2022-09-11T02:00:33.210Z,37.33
2022-09-11T02:03:16.464Z,38.63
2022-09-11T02:05:53.641Z,40.13
2022-09-11T02:08:31.058Z,41.28
2022-09-11T02:11:09.171Z,41.47
2022-09-11T02:13:49.859Z,38.42
2022-09-11T02:16:44.533Z,35.03
2022-09-11T02:19:19.907Z,38.70
2022-09-11T02:21:52.901Z,43.10
2022-09-11T02:24:25.126Z,37.20
2022-09-11T02:27:00.687Z,47.42
2022-09-11T02:29:31.135Z,40.85
2022-09-11T02:32:02.869Z,43.95
2022-09-11T02:34:37.125Z,39.95
2022-09-11T02:37:33.553Z,46.80
2022-09-11T02:40:41.068Z,39.70
2022-09-11T02:43:49.202Z,41.95
2022-09-11T02:46:41.974Z,39.75
2022-09-11T02:49:43.688Z,42.25
2022-09-11T02:52:43.054Z,37.90
2022-09-11T02:55:22.813Z,41.45
2022-09-11T03:00:28.720Z,45.63
2022-09-11T03:02:59.229Z,40.67
2022-09-11T03:05:31.106Z,40.05
2022-09-11T03:08:02.025Z,45.55
2022-09-11T03:10:32.314Z,29.05
2022-09-11T03:13:02.924Z,38.92
2022-09-11T03:15:33.923Z,39.53
2022-09-11T03:18:04.429Z,36.50
2022-09-11T03:20:36.247Z,35.00
2022-09-11T03:23:11.887Z,38.17
2022-09-11T03:25:43.773Z,36.53
2022-09-11T03:28:14.410Z,38.17
2022-09-11T03:30:44.813Z,32.15
2022-09-11T03:33:15.536Z,34.20
2022-09-11T03:35:46.836Z,30.83
2022-09-11T03:38:17.836Z,31.73
2022-09-11T03:40:48.183Z,31.00
2022-09-11T03:43:18.955Z,34.05
2022-09-11T03:45:52.306Z,30.48
2022-09-11T03:48:22.965Z,33.67
2022-09-11T03:50:53.371Z,31.73
2022-09-11T03:53:23.991Z,30.60
2022-09-11T03:55:54.344Z,34.75
2022-09-11T03:58:24.815Z,36.75
2022-09-11T04:00:55.538Z,34.60
2022-09-11T04:03:26.000Z,31.52
2022-09-11T04:06:05.049Z,37.92
2022-09-11T04:08:36.460Z,29.65
2022-09-11T04:11:08.792Z,38.92
2022-09-11T04:13:41.367Z,39.78
2022-09-11T04:16:15.490Z,33.97
2022-09-11T04:18:48.024Z,30.48
2022-09-11T04:21:20.705Z,30.60
2022-09-11T04:23:56.548Z,38.08
2022-09-11T04:26:29.017Z,32.63
2022-09-11T04:29:00.685Z,32.42
2022-09-11T04:31:31.475Z,36.97
2022-09-11T04:34:02.483Z,32.97
2022-09-11T04:36:32.893Z,39.33
2022-09-11T04:39:03.719Z,29.17
2022-09-11T04:41:34.726Z,28.40
2022-09-11T04:44:06.110Z,29.60
2022-09-11T04:46:37.046Z,30.02
2022-09-11T04:49:07.379Z,27.88
2022-09-11T04:51:41.215Z,30.88
2022-09-11T04:54:15.522Z,28.23
2022-09-11T04:56:46.361Z,26.13
2022-09-11T04:59:22.054Z,38.50
2022-09-11T05:01:54.187Z,32.20
2022-09-11T05:04:26.361Z,29.73
2022-09-11T05:07:00.547Z,27.33
2022-09-11T05:09:31.122Z,22.50
2022-09-11T05:12:01.454Z,31.23
2022-09-11T05:14:34.850Z,26.90
2022-09-11T05:17:05.448Z,27.25
2022-09-11T05:19:35.783Z,32.53
2022-09-11T05:22:06.570Z,27.75
2022-09-11T05:24:37.060Z,28.25
2022-09-11T05:27:08.950Z,19.95
2022-09-11T05:29:40.045Z,21.27
2022-09-11T05:32:10.622Z,22.38
2022-09-11T05:34:40.968Z,25.13
2022-09-11T05:37:11.290Z,25.88
2022-09-11T05:39:41.594Z,20.35
2022-09-11T05:42:11.916Z,23.25
2022-09-11T05:44:42.841Z,20.23
2022-09-11T05:47:13.228Z,14.77
2022-09-11T05:49:43.753Z,17.58
2022-09-11T05:52:14.040Z,13.43
2022-09-11T05:54:44.345Z,16.23
2022-09-11T05:57:14.838Z,11.25
2022-09-11T05:59:45.130Z,14.30
2022-09-11T06:02:16.194Z,16.08
2022-09-11T06:04:46.907Z,15.70
2022-09-11T06:07:17.160Z,14.18
2022-09-11T06:09:47.675Z,13.68
2022-09-11T06:12:18.038Z,13.90
2022-09-11T06:14:48.782Z,14.27
2022-09-11T06:17:19.395Z,11.10
2022-09-11T06:19:49.806Z,12.45
2022-09-11T06:22:20.054Z,17.23
2022-09-11T06:24:51.211Z,10.80
2022-09-11T06:27:22.162Z,14.20
2022-09-11T06:29:52.594Z,19.20
2022-09-11T06:32:22.850Z,11.27
2022-09-11T06:34:53.601Z,14.63
2022-09-11T06:37:23.880Z,15.70
2022-09-11T06:39:54.291Z,13.05
2022-09-11T06:42:25.542Z,11.20
2022-09-11T06:44:56.034Z,14.25
2022-09-11T06:47:26.397Z,18.30
2022-09-11T06:49:56.637Z,17.05
2022-09-11T06:52:26.913Z,17.52
2022-09-11T06:54:57.364Z,12.98
2022-09-11T06:57:27.652Z,13.90
2022-09-11T06:59:59.829Z,15.82
2022-09-11T07:02:30.083Z,23.52
2022-09-11T07:05:00.437Z,14.98
2022-09-11T07:07:30.760Z,12.23
2022-09-11T07:10:05.794Z,18.25
2022-09-11T07:12:36.027Z,17.85
2022-09-11T07:15:06.940Z,20.25
2022-09-11T07:17:38.474Z,16.77
2022-09-11T07:20:11.496Z,13.15
2022-09-11T07:22:42.585Z,11.80
2022-09-11T07:25:12.990Z,12.65
2022-09-11T07:27:43.490Z,14.48
2022-09-11T07:30:15.272Z,17.05
2022-09-11T07:32:45.527Z,11.70
2022-09-11T07:35:18.655Z,14.05
2022-09-11T07:37:51.016Z,15.38
2022-09-11T07:40:21.615Z,18.38
2022-09-11T07:42:51.933Z,20.20
2022-09-11T07:45:22.863Z,19.65
2022-09-11T07:47:53.331Z,14.23
2022-09-11T07:50:23.752Z,24.05
2022-09-11T07:52:54.260Z,14.10
2022-09-11T07:55:24.713Z,20.65
2022-09-11T07:57:56.168Z,15.50
2022-09-11T08:00:26.540Z,18.27
2022-09-11T08:02:58.649Z,16.73
2022-09-11T08:05:29.403Z,19.50
2022-09-11T08:08:00.254Z,15.00
2022-09-11T08:10:30.562Z,13.23
2022-09-11T08:13:01.456Z,13.25
2022-09-11T08:15:32.687Z,15.30
2022-09-11T08:18:03.340Z,11.57
2022-09-11T08:20:34.693Z,10.63
2022-09-11T08:23:04.961Z,15.00
2022-09-11T08:25:37.932Z,12.43
2022-09-11T08:28:09.005Z,15.27
2022-09-11T08:30:40.823Z,12.38
2022-09-11T08:33:11.542Z,13.45
2022-09-11T08:35:41.823Z,15.05
2022-09-11T08:38:12.339Z,18.65
2022-09-11T08:40:43.023Z,17.73
2022-09-11T08:43:33.016Z,14.00
2022-09-11T08:46:11.485Z,16.98
2022-09-11T08:49:02.361Z,18.63
2022-09-11T08:51:34.075Z,25.65
2022-09-11T08:54:05.832Z,20.40
2022-09-11T08:56:38.321Z,21.75
2022-09-11T08:59:38.534Z,26.98
2022-09-11T09:02:43.896Z,21.75
2022-09-11T09:05:34.685Z,23.95
2022-09-11T09:08:37.339Z,19.20
2022-09-11T09:11:24.498Z,18.73
2022-09-11T09:14:28.573Z,20.27
2022-09-11T09:17:10.084Z,24.58
2022-09-11T09:20:05.387Z,18.33
2022-09-11T09:22:50.646Z,18.50
2022-09-11T09:25:25.356Z,19.58
2022-09-11T09:28:19.238Z,19.25
2022-09-11T09:30:56.308Z,19.63
2022-09-11T09:33:33.999Z,21.73
2022-09-11T09:36:18.794Z,19.02
2022-09-11T09:38:50.436Z,22.45
2022-09-11T09:41:54.827Z,18.73
2022-09-11T09:44:51.141Z,26.90
2022-09-11T09:47:21.760Z,20.77
2022-09-11T09:49:54.757Z,17.45
2022-09-11T09:52:28.128Z,23.30
2022-09-11T09:55:03.338Z,28.15
2022-09-11T09:57:38.937Z,22.15
2022-09-11T10:00:22.607Z,19.10
2022-09-11T10:02:57.347Z,19.67
2022-09-11T10:05:44.288Z,20.63
2022-09-11T10:08:36.712Z,18.67
2022-09-11T10:11:11.549Z,14.55
2022-09-11T10:13:46.065Z,17.30
2022-09-11T10:16:29.414Z,25.45
2022-09-11T10:19:00.216Z,18.23
2022-09-11T10:21:35.557Z,17.63
2022-09-11T10:24:25.617Z,16.80
2022-09-11T10:26:57.850Z,24.00
2022-09-11T10:29:33.208Z,24.77
2022-09-11T10:32:05.224Z,14.07
2022-09-11T10:34:44.167Z,18.58
2022-09-11T10:37:29.342Z,15.88
2022-09-11T10:40:09.517Z,15.18
2022-09-11T10:42:43.292Z,18.20
2022-09-11T10:45:19.943Z,19.40
2022-09-11T10:47:51.317Z,19.35
2022-09-11T10:50:25.048Z,20.40
2022-09-11T10:53:23.117Z,18.83
2022-09-11T10:56:02.312Z,15.15
2022-09-11T10:58:39.401Z,18.08
2022-09-11T11:01:10.247Z,19.48
2022-09-11T11:03:41.236Z,12.65
2022-09-11T11:06:46.304Z,21.05
2022-09-11T11:09:35.142Z,17.98
2022-09-11T11:12:34.554Z,17.98
2022-09-11T11:15:30.458Z,22.45
2022-09-11T11:18:25.742Z,19.17
2022-09-11T11:21:24.169Z,18.38
2022-09-11T11:24:20.221Z,14.80
2022-09-11T11:27:24.523Z,19.88
2022-09-11T11:30:12.529Z,15.13
2022-09-11T11:33:12.303Z,16.25
2022-09-11T11:36:05.901Z,13.90
2022-09-11T11:39:02.484Z,16.52
2022-09-11T11:41:40.700Z,16.27
2022-09-11T11:44:17.890Z,18.02
2022-09-11T11:46:54.561Z,16.45
2022-09-11T11:50:02.728Z,12.80
2022-09-11T11:52:48.899Z,17.10
2022-09-11T11:55:23.095Z,34.88
2022-09-11T11:58:29.730Z,18.95
2022-09-11T12:01:03.919Z,18.33
2022-09-11T12:03:46.694Z,16.85
2022-09-11T12:06:17.699Z,26.70
2022-09-11T12:08:49.412Z,21.15
2022-09-11T12:11:28.877Z,16.20
2022-09-11T12:14:00.073Z,22.05
2022-09-11T12:16:37.077Z,20.23
2022-09-11T12:19:19.428Z,26.35
2022-09-11T12:22:13.737Z,24.10
2022-09-11T12:25:00.823Z,26.15
2022-09-11T12:27:55.056Z,22.15
2022-09-11T12:30:29.172Z,25.90
2022-09-11T12:33:03.027Z,23.92
2022-09-11T12:35:54.112Z,29.08
2022-09-11T12:38:42.949Z,26.77
2022-09-11T12:41:36.517Z,23.85
2022-09-11T12:44:27.531Z,23.88
2022-09-11T12:47:13.658Z,25.05
2022-09-11T12:49:45.636Z,22.33
2022-09-11T12:52:28.129Z,30.27
2022-09-11T12:55:07.152Z,27.23
2022-09-11T12:57:40.863Z,28.73
2022-09-11T13:00:22.671Z,29.80
2022-09-11T13:03:01.269Z,31.42
2022-09-11T13:05:37.323Z,34.90
2022-09-11T13:08:24.409Z,24.95
2022-09-11T13:10:54.676Z,25.55
2022-09-11T13:13:46.721Z,22.42
2022-09-11T13:16:31.364Z,30.52
2022-09-11T13:19:20.031Z,29.05
2022-09-11T13:21:54.103Z,28.42
2022-09-11T13:24:33.242Z,26.63
2022-09-11T13:27:12.217Z,37.30
2022-09-11T13:29:45.126Z,42.93
2022-09-11T13:32:19.117Z,29.77
2022-09-11T13:34:53.537Z,29.40
2022-09-11T13:37:44.349Z,26.95
2022-09-11T13:40:29.360Z,25.95
2022-09-11T13:43:01.367Z,31.35
2022-09-11T13:45:31.974Z,33.30
2022-09-11T13:48:02.742Z,28.80
2022-09-11T13:50:33.891Z,27.70
2022-09-11T13:53:04.335Z,34.60
2022-09-11T13:55:35.026Z,29.42
2022-09-11T13:58:23.941Z,39.60
2022-09-11T14:00:57.142Z,34.95
2022-09-11T14:03:30.800Z,26.52
2022-09-11T14:06:14.392Z,27.05
2022-09-11T14:08:55.989Z,26.08
2022-09-11T14:11:32.528Z,31.30
2022-09-11T14:14:13.291Z,34.65
2022-09-11T14:16:56.811Z,25.60
2022-09-11T14:19:32.907Z,23.75
2022-09-11T14:22:17.523Z,24.95
2022-09-11T14:25:06.161Z,64.45
2022-09-11T14:27:39.726Z,28.88
2022-09-11T14:30:34.684Z,34.67
2022-09-11T14:33:24.788Z,42.25
2022-09-11T14:36:07.946Z,25.83
2022-09-11T14:38:40.340Z,29.65
2022-09-11T14:41:11.000Z,32.40
2022-09-11T14:43:42.215Z,39.88
2022-09-11T14:46:12.895Z,37.45
2022-09-11T14:48:45.862Z,33.03
2022-09-11T14:51:16.247Z,35.50
2022-09-11T14:53:47.239Z,30.15
2022-09-11T14:56:17.452Z,32.90
2022-09-11T14:58:49.166Z,27.05
2022-09-11T15:01:19.446Z,40.67
2022-09-11T15:03:50.079Z,30.63
2022-09-11T15:06:22.497Z,37.50
2022-09-11T15:08:52.803Z,33.30
2022-09-11T15:11:23.173Z,31.83
2022-09-11T15:14:14.530Z,40.03
2022-09-11T15:16:45.307Z,29.10
2022-09-11T15:19:17.550Z,25.38
2022-09-11T15:21:47.837Z,26.77
2022-09-11T15:24:19.200Z,36.55
2022-09-11T15:26:49.568Z,29.65
2022-09-11T15:29:19.827Z,42.78
2022-09-11T15:31:50.987Z,33.35
2022-09-11T15:34:21.818Z,22.38
2022-09-11T15:36:53.176Z,27.55
2022-09-11T15:39:26.459Z,36.70
2022-09-11T15:41:58.472Z,24.25
2022-09-11T15:44:31.431Z,23.92
2022-09-11T15:47:01.846Z,29.48
2022-09-11T15:49:33.761Z,29.17
2022-09-11T15:52:04.917Z,24.73
2022-09-11T15:54:35.285Z,30.52
2022-09-11T15:57:05.551Z,28.48
2022-09-11T15:59:36.681Z,30.27
2022-09-11T16:02:07.046Z,26.83
2022-09-11T16:04:37.705Z,34.28
2022-09-11T16:07:08.008Z,31.77
2022-09-11T16:09:38.840Z,35.97
2022-09-11T16:12:09.460Z,26.45
2022-09-11T16:14:40.708Z,28.83
2022-09-11T16:17:18.770Z,31.13
2022-09-11T16:19:49.696Z,28.08
2022-09-11T16:22:19.934Z,27.13
2022-09-11T16:24:50.521Z,28.27
2022-09-11T16:27:21.403Z,26.48
2022-09-11T16:30:25.963Z,27.40
2022-09-11T16:32:43.240Z,36.63
2022-09-11T16:35:15.933Z,32.90
2022-09-11T16:37:46.262Z,29.90
2022-09-11T16:40:17.177Z,30.63
2022-09-11T16:42:47.463Z,30.25
2022-09-11T16:45:17.807Z,28.40
2022-09-11T16:47:48.392Z,30.27
2022-09-11T16:50:19.542Z,26.45
2022-09-11T16:52:49.786Z,29.48
2022-09-11T16:55:22.233Z,29.02
2022-09-11T16:57:56.205Z,36.78
2022-09-11T17:00:26.682Z,33.13
2022-09-11T17:02:56.955Z,26.27
2022-09-11T17:05:27.587Z,32.13
2022-09-11T17:07:57.849Z,32.20
2022-09-11T17:10:28.148Z,41.45
2022-09-11T17:12:58.789Z,33.95
2022-09-11T17:15:30.549Z,27.40
2022-09-11T17:18:00.796Z,32.17
2022-09-11T17:20:31.676Z,28.63
2022-09-11T17:23:02.026Z,30.17
2022-09-11T17:25:33.316Z,29.80
2022-09-11T17:28:03.620Z,27.77
2022-09-11T17:30:34.454Z,23.10
2022-09-11T17:33:05.125Z,24.83
2022-09-11T17:35:35.602Z,28.85
2022-09-11T17:38:06.096Z,25.88
2022-09-11T17:40:36.579Z,27.25
2022-09-11T17:43:07.103Z,29.27
2022-09-11T17:45:37.529Z,39.70
2022-09-11T17:48:07.794Z,25.90
2022-09-11T17:50:38.322Z,28.92
2022-09-11T17:53:08.519Z,26.27
2022-09-11T17:55:39.281Z,29.85
2022-09-11T17:58:09.541Z,27.25
2022-09-11T18:00:40.135Z,34.13
2022-09-11T18:03:10.442Z,45.25
2022-09-11T18:05:45.897Z,45.30
2022-09-11T18:08:16.414Z,45.97
2022-09-11T18:10:55.269Z,87.80
2022-09-11T18:13:25.519Z,93.63
2022-09-11T18:15:58.104Z,98.20
2022-09-11T18:18:29.523Z,97.40
2022-09-11T18:21:06.555Z,86.85
2022-09-11T18:23:41.249Z,98.82
2022-09-11T18:26:12.978Z,89.30
2022-09-11T18:28:43.207Z,94.03
2022-09-11T18:31:13.715Z,88.45
2022-09-11T18:33:44.191Z,90.60
2022-09-11T18:36:16.077Z,88.40
2022-09-11T18:38:46.432Z,92.63
2022-09-11T18:41:16.699Z,101.72
2022-09-11T18:43:50.499Z,101.00
2022-09-11T18:46:21.183Z,108.15
2022-09-11T18:48:52.455Z,91.97
2022-09-11T18:51:23.190Z,99.43
2022-09-11T18:53:54.211Z,94.25
2022-09-11T18:56:29.350Z,87.20
2022-09-11T18:59:01.499Z,99.30
2022-09-11T19:01:34.635Z,84.63
2022-09-11T19:04:10.236Z,84.30
2022-09-11T19:06:41.717Z,63.53
2022-09-11T19:09:14.755Z,58.58
2022-09-11T19:11:45.501Z,69.55
2022-09-11T19:14:17.015Z,63.10
2022-09-11T19:16:47.885Z,51.38
2022-09-11T19:19:18.358Z,46.47
2022-09-11T19:21:48.995Z,51.30
2022-09-11T19:24:19.259Z,57.42
2022-09-11T19:26:49.717Z,47.38
2022-09-11T19:29:22.236Z,44.15
2022-09-11T19:31:52.524Z,35.03
2022-09-11T19:34:24.152Z,39.08
2022-09-11T19:36:54.601Z,39.33
2022-09-11T19:39:24.947Z,30.83
2022-09-11T19:41:55.370Z,30.83
2022-09-11T19:44:27.240Z,34.88
2022-09-11T19:46:59.562Z,29.02
2022-09-11T19:49:31.161Z,30.20
2022-09-11T19:52:01.933Z,28.92
2022-09-11T19:54:32.861Z,26.45
2022-09-11T19:57:04.471Z,31.02
2022-09-11T19:59:35.123Z,29.02
2022-09-11T20:02:05.655Z,26.95
2022-09-11T20:04:36.041Z,30.98
2022-09-11T20:07:07.573Z,29.25
2022-09-11T20:09:37.916Z,25.50
2022-09-11T20:12:08.319Z,24.17
2022-09-11T20:14:42.419Z,22.65
2022-09-11T20:17:13.190Z,31.95
2022-09-11T20:19:46.744Z,30.30
2022-09-11T20:22:17.108Z,35.95
2022-09-11T20:24:47.385Z,33.53
2022-09-11T20:27:17.882Z,35.90
2022-09-11T20:29:48.159Z,38.65
2022-09-11T20:32:20.239Z,35.42
2022-09-11T20:34:50.560Z,34.80
2022-09-11T20:37:20.880Z,40.78
2022-09-11T20:39:51.187Z,36.67
2022-09-11T20:42:21.640Z,36.72
2022-09-11T20:44:51.997Z,35.78
2022-09-11T20:47:22.304Z,33.28
2022-09-11T20:49:52.722Z,41.78
2022-09-11T20:52:23.086Z,41.00
2022-09-11T20:54:53.855Z,40.13
2022-09-11T20:57:24.192Z,38.00
2022-09-11T20:59:54.492Z,29.02
2022-09-11T21:02:24.888Z,28.00
2022-09-11T21:04:55.175Z,40.42
2022-09-11T21:07:25.481Z,42.95
2022-09-11T21:09:55.774Z,38.10
2022-09-11T21:12:26.823Z,34.92
2022-09-11T21:14:57.550Z,31.58
2022-09-11T21:17:27.938Z,32.15
2022-09-11T21:19:58.206Z,28.73
2022-09-11T21:22:28.584Z,38.03
2022-09-11T21:24:58.961Z,34.58
2022-09-11T21:27:29.335Z,37.40
2022-09-11T21:29:59.594Z,33.53
2022-09-11T21:32:29.924Z,38.83
2022-09-11T21:35:00.216Z,33.15
2022-09-11T21:37:30.527Z,33.72
2022-09-11T21:40:00.884Z,37.38
2022-09-11T21:42:31.239Z,33.92
2022-09-11T21:45:01.614Z,35.97
2022-09-11T21:47:32.401Z,31.33
2022-09-11T21:50:02.701Z,28.50
2022-09-11T21:52:33.126Z,27.40
2022-09-11T21:55:03.406Z,25.08
2022-09-11T21:57:33.825Z,25.70
2022-09-11T22:00:04.233Z,26.20
2022-09-11T22:02:34.599Z,27.30
2022-09-11T22:05:06.256Z,24.10
2022-09-11T22:07:36.865Z,27.45
2022-09-11T22:10:09.456Z,26.30
2022-09-11T22:12:40.094Z,21.42
2022-09-11T22:15:11.874Z,21.67
2022-09-11T22:17:42.623Z,29.27
2022-09-11T22:20:12.997Z,26.75
2022-09-11T22:22:43.677Z,32.85
2022-09-11T22:25:14.013Z,31.73
2022-09-11T22:27:48.687Z,31.13
2022-09-11T22:30:18.982Z,33.35
2022-09-11T22:32:49.409Z,36.50
2022-09-11T22:35:20.520Z,32.20
2022-09-11T22:37:51.167Z,28.55
2022-09-11T22:40:21.841Z,28.88
2022-09-11T22:42:52.273Z,24.85
2022-09-11T22:45:23.127Z,22.90
2022-09-11T22:47:53.473Z,31.75
2022-09-11T22:50:23.799Z,25.95
2022-09-11T22:52:54.196Z,32.38
2022-09-11T22:55:24.512Z,23.98
2022-09-11T22:57:54.881Z,27.10
2022-09-11T23:00:25.223Z,25.38
2022-09-11T23:02:55.633Z,30.48
2022-09-11T23:05:38.639Z,27.63
2022-09-11T23:08:08.924Z,27.25
2022-09-11T23:10:47.091Z,27.20
2022-09-11T23:13:18.033Z,27.95
2022-09-11T23:15:48.779Z,35.63
2022-09-11T23:18:19.455Z,31.95
2022-09-11T23:20:54.008Z,30.08
2022-09-11T23:23:24.780Z,30.35
2022-09-11T23:25:55.383Z,41.08
2022-09-11T23:28:25.870Z,46.67
2022-09-11T23:30:56.541Z,37.20
2022-09-11T23:33:27.676Z,44.55
2022-09-11T23:35:58.155Z,31.40
2022-09-11T23:38:28.688Z,32.42
2022-09-11T23:40:58.993Z,23.67
2022-09-11T23:43:29.397Z,28.77
2022-09-11T23:45:59.764Z,28.88
2022-09-11T23:48:30.203Z,28.02
2022-09-11T23:51:00.499Z,38.45
2022-09-11T23:53:31.868Z,26.80
2022-09-11T23:56:02.411Z,36.67
2022-09-11T23:58:35.606Z,30.98
